Terminal Aerodrome Forecast
Issued by NWS Wichita, KS

Home | Current Version | Previous Version | Text Only | Print | Product List | Glossary Off
Versions: 1 2 3 4 5 6 7 8 9 10 11 12 13 14 15 16

015
FTUS43 KICT 232034 AAB
TAFICT
TAF AMD
KICT 232034Z 2321/2418 17008KT P6SM SKC
     FM241000 18010KT P6SM SKC WS015/20045KT
     FM241400 18022G30KT P6SM SCT250=

USA.gov is the U.S. government's official web portal to all federal, state and local government web resources and services.